createdAt,value
2022-10-21T00:04:04.884Z,53.22
2022-10-21T00:06:30.422Z,53.24
2022-10-21T00:08:56.021Z,53.18
2022-10-21T00:11:21.644Z,53.01
2022-10-21T00:13:47.187Z,53.02
2022-10-21T00:16:14.079Z,53.09
2022-10-21T00:18:40.453Z,53.12
2022-10-21T00:21:06.739Z,53.00
2022-10-21T00:23:32.285Z,53.07
2022-10-21T00:25:57.826Z,52.96
2022-10-21T00:28:23.379Z,53.12
2022-10-21T00:30:48.943Z,53.10
2022-10-21T00:33:14.497Z,53.07
2022-10-21T00:35:40.070Z,53.04
2022-10-21T00:38:05.626Z,53.07
2022-10-21T00:40:31.323Z,53.10
2022-10-21T00:42:56.864Z,53.08
2022-10-21T00:45:23.536Z,53.10
2022-10-21T00:47:51.129Z,52.94
2022-10-21T00:50:18.714Z,53.09
2022-10-21T00:52:44.252Z,53.06
2022-10-21T00:55:09.812Z,52.92
2022-10-21T00:57:35.520Z,52.95
2022-10-21T01:00:01.359Z,53.05
2022-10-21T01:02:27.224Z,53.10
2022-10-21T01:04:53.277Z,53.00
2022-10-21T01:07:18.824Z,53.04
2022-10-21T01:09:44.375Z,53.04
2022-10-21T01:12:12.923Z,52.92
2022-10-21T01:14:42.733Z,52.71
2022-10-21T01:17:26.332Z,53.10
2022-10-21T01:20:09.314Z,52.86
2022-10-21T01:22:48.856Z,52.87
2022-10-21T01:25:34.272Z,53.06
2022-10-21T01:28:19.696Z,52.91
2022-10-21T01:31:00.619Z,52.87
2022-10-21T01:33:46.047Z,53.00
2022-10-21T01:36:22.534Z,53.05
2022-10-21T01:39:07.972Z,52.96
2022-10-21T01:41:36.519Z,53.03
2022-10-21T01:44:05.555Z,52.97
2022-10-21T01:46:37.864Z,52.86
2022-10-21T01:49:05.523Z,52.97
2022-10-21T01:51:31.062Z,52.87
2022-10-21T01:53:58.302Z,52.94
2022-10-21T01:56:23.847Z,52.96
2022-10-21T01:58:49.395Z,52.93
2022-10-21T02:01:15.200Z,52.97
2022-10-21T02:03:41.394Z,52.94
2022-10-21T02:06:06.941Z,53.05
2022-10-21T02:08:32.591Z,53.02
2022-10-21T02:10:58.782Z,52.93
2022-10-21T02:13:25.415Z,52.80
2022-10-21T02:15:52.269Z,52.97
2022-10-21T02:18:20.346Z,53.06
2022-10-21T02:20:45.895Z,52.82
2022-10-21T02:23:12.390Z,52.83
2022-10-21T02:25:38.047Z,52.89
2022-10-21T02:28:03.673Z,52.74
2022-10-21T02:30:31.702Z,52.82
2022-10-21T02:33:01.479Z,52.88
2022-10-21T02:35:44.946Z,52.69
2022-10-21T02:38:14.114Z,52.82
2022-10-21T02:40:41.338Z,52.85
2022-10-21T02:43:11.493Z,52.79
2022-10-21T02:45:37.400Z,52.89
2022-10-21T02:48:03.321Z,52.93
2022-10-21T02:50:28.864Z,52.93
2022-10-21T02:52:54.427Z,52.90
2022-10-21T02:55:19.971Z,52.87
2022-10-21T02:57:45.520Z,52.99
2022-10-21T03:00:11.402Z,52.75
2022-10-21T03:02:36.947Z,52.89
2022-10-21T03:05:02.594Z,52.78
2022-10-21T03:07:28.142Z,52.98
2022-10-21T03:09:53.689Z,52.98
2022-10-21T03:12:19.226Z,52.89
2022-10-21T03:14:44.775Z,52.80
2022-10-21T03:17:10.324Z,52.78
2022-10-21T03:19:35.883Z,52.83
2022-10-21T03:22:01.419Z,52.82
2022-10-21T03:24:28.837Z,52.76
2022-10-21T03:26:54.811Z,52.87
2022-10-21T03:29:20.364Z,52.73
2022-10-21T03:31:45.914Z,52.74
2022-10-21T03:34:11.468Z,52.72
2022-10-21T03:36:37.018Z,52.79
2022-10-21T03:39:02.574Z,53.18
2022-10-21T03:41:28.119Z,52.80
2022-10-21T03:43:53.674Z,52.73
2022-10-21T03:46:19.228Z,52.74
2022-10-21T03:48:44.796Z,52.73
2022-10-21T03:51:10.344Z,52.83
2022-10-21T03:53:43.325Z,52.89
2022-10-21T03:56:09.230Z,52.84
2022-10-21T03:58:34.971Z,52.71
2022-10-21T04:01:00.565Z,52.73
2022-10-21T04:03:26.118Z,52.73
2022-10-21T04:05:51.684Z,52.70
2022-10-21T04:08:17.237Z,52.69
2022-10-21T04:10:43.578Z,52.79
2022-10-21T04:13:09.157Z,52.71
2022-10-21T04:15:34.701Z,52.87
2022-10-21T04:18:00.252Z,52.76
2022-10-21T04:20:25.796Z,52.78
2022-10-21T04:22:51.347Z,52.90
2022-10-21T04:25:16.898Z,52.76
2022-10-21T04:27:42.451Z,52.76
2022-10-21T04:30:08.215Z,52.74
2022-10-21T04:32:33.774Z,52.90
2022-10-21T04:34:59.330Z,52.69
2022-10-21T04:37:24.883Z,52.85
2022-10-21T04:39:50.434Z,52.69
2022-10-21T04:42:16.024Z,52.71
2022-10-21T04:44:41.603Z,52.85
2022-10-21T04:47:07.144Z,52.76
2022-10-21T04:49:32.695Z,52.90
2022-10-21T04:51:58.232Z,52.76
2022-10-21T04:54:23.777Z,52.73
2022-10-21T04:56:49.349Z,52.84
2022-10-21T04:59:14.898Z,52.66
2022-10-21T05:01:40.435Z,52.88
2022-10-21T05:04:05.977Z,52.80
2022-10-21T05:06:31.519Z,52.69
2022-10-21T05:08:57.152Z,52.82
2022-10-21T05:11:22.741Z,52.84
2022-10-21T05:13:48.294Z,52.78
2022-10-21T05:16:13.833Z,52.71
2022-10-21T05:18:39.391Z,52.72
2022-10-21T05:21:04.935Z,52.82
2022-10-21T05:23:30.503Z,52.89
2022-10-21T05:25:56.042Z,52.83
2022-10-21T05:28:21.594Z,52.69
2022-10-21T05:30:47.234Z,52.77
2022-10-21T05:33:12.793Z,52.82
2022-10-21T05:35:38.336Z,52.69
2022-10-21T05:38:04.038Z,52.72
2022-10-21T05:40:30.112Z,52.75
2022-10-21T05:42:55.667Z,52.82
2022-10-21T05:45:21.227Z,52.77
2022-10-21T05:47:46.773Z,52.66
2022-10-21T05:50:12.558Z,52.95
2022-10-21T05:52:38.598Z,52.84
2022-10-21T05:55:04.689Z,52.74
2022-10-21T05:57:31.790Z,52.86
2022-10-21T05:59:57.347Z,52.88
2022-10-21T06:02:22.927Z,52.79
2022-10-21T06:04:48.491Z,52.86
2022-10-21T06:07:14.039Z,52.70
2022-10-21T06:09:40.094Z,52.87
2022-10-21T06:12:06.219Z,52.76
2022-10-21T06:14:31.766Z,52.87
2022-10-21T06:16:57.322Z,52.80
2022-10-21T06:19:22.877Z,52.70
2022-10-21T06:21:48.460Z,52.68
2022-10-21T06:24:14.203Z,52.78
2022-10-21T06:26:39.804Z,52.76
2022-10-21T06:29:05.395Z,52.79
2022-10-21T06:31:30.935Z,52.74
2022-10-21T06:33:56.480Z,52.81
2022-10-21T06:36:22.021Z,52.79
2022-10-21T06:38:47.594Z,52.85
2022-10-21T06:41:13.712Z,52.80
2022-10-21T06:43:39.692Z,52.71
2022-10-21T06:46:06.369Z,52.93
2022-10-21T06:48:31.921Z,52.80
2022-10-21T06:50:58.893Z,52.80
2022-10-21T06:53:24.564Z,52.81
2022-10-21T06:55:50.128Z,52.69
2022-10-21T06:58:15.683Z,52.67
2022-10-21T07:00:41.238Z,52.78
2022-10-21T07:03:06.802Z,52.78
2022-10-21T07:05:32.345Z,52.90
2022-10-21T07:07:57.892Z,52.80
2022-10-21T07:10:23.438Z,52.81
2022-10-21T07:12:48.999Z,52.80
2022-10-21T07:15:14.553Z,52.77
2022-10-21T07:17:40.510Z,52.87
2022-10-21T07:20:06.425Z,52.86
2022-10-21T07:22:31.993Z,52.77
2022-10-21T07:24:57.569Z,52.85
2022-10-21T07:27:23.189Z,52.78
2022-10-21T07:29:48.738Z,52.72
2022-10-21T07:32:14.290Z,53.14
2022-10-21T07:34:39.833Z,52.73
2022-10-21T07:37:05.645Z,52.82
2022-10-21T07:39:31.767Z,52.74
2022-10-21T07:41:57.505Z,53.48
2022-10-21T07:44:23.586Z,52.91
2022-10-21T07:46:49.236Z,52.79
2022-10-21T07:49:15.633Z,52.85
2022-10-21T07:51:41.233Z,52.77
2022-10-21T07:54:06.789Z,52.69
2022-10-21T07:56:33.696Z,53.04
2022-10-21T07:59:00.691Z,52.86
2022-10-21T08:01:26.384Z,52.80
2022-10-21T08:03:53.073Z,52.86
2022-10-21T08:06:18.646Z,52.95
2022-10-21T08:08:45.173Z,52.96
2022-10-21T08:11:10.756Z,52.75
2022-10-21T08:13:37.328Z,52.80
2022-10-21T08:16:03.989Z,52.76
2022-10-21T08:18:29.571Z,52.81
2022-10-21T08:20:55.121Z,52.79
2022-10-21T08:23:21.162Z,52.98
2022-10-21T08:25:47.352Z,52.89
2022-10-21T08:28:12.988Z,55.30
2022-10-21T08:30:38.558Z,53.89
2022-10-21T08:33:04.199Z,53.87
2022-10-21T08:35:29.963Z,54.44
2022-10-21T08:37:55.600Z,56.99
2022-10-21T08:40:21.195Z,55.03
2022-10-21T08:42:46.766Z,54.68
2022-10-21T08:45:22.172Z,54.51
2022-10-21T08:47:49.183Z,54.46
2022-10-21T08:50:15.576Z,54.34
2022-10-21T08:52:56.177Z,54.76
2022-10-21T08:55:23.345Z,56.53
2022-10-21T08:57:49.261Z,54.87
2022-10-21T09:00:16.499Z,54.58
2022-10-21T09:03:00.168Z,54.76
2022-10-21T09:05:32.397Z,54.58
2022-10-21T09:08:00.402Z,55.14
2022-10-21T09:10:45.917Z,55.25
2022-10-21T09:13:12.441Z,55.02
2022-10-21T09:15:57.874Z,54.48
2022-10-21T09:18:34.344Z,54.77
2022-10-21T09:21:05.903Z,58.30
2022-10-21T09:23:42.342Z,58.11
2022-10-21T09:26:13.479Z,56.12
2022-10-21T09:28:39.031Z,55.51
2022-10-21T09:31:08.857Z,55.19
2022-10-21T09:33:34.416Z,57.13
2022-10-21T09:36:02.308Z,55.54
2022-10-21T09:38:30.394Z,55.65
2022-10-21T09:41:02.183Z,56.32
2022-10-21T09:43:27.807Z,55.73
2022-10-21T09:45:53.349Z,55.09
2022-10-21T09:48:21.629Z,55.09
2022-10-21T09:50:55.788Z,56.16
2022-10-21T09:53:25.542Z,56.92
2022-10-21T09:55:55.335Z,55.97
2022-10-21T09:58:25.048Z,56.78
2022-10-21T10:00:50.600Z,56.70
2022-10-21T10:03:36.055Z,56.20
2022-10-21T10:06:01.877Z,56.82
2022-10-21T10:08:43.656Z,56.74
2022-10-21T10:13:44.859Z,56.78
2022-10-21T10:16:13.839Z,56.51
2022-10-21T10:18:39.731Z,56.53
2022-10-21T10:21:06.148Z,55.85
2022-10-21T10:23:40.525Z,55.41
2022-10-21T10:26:06.067Z,55.97
2022-10-21T10:28:31.716Z,56.30
2022-10-21T10:30:57.309Z,56.36
2022-10-21T10:33:24.143Z,56.02
2022-10-21T10:35:51.110Z,55.66
2022-10-21T10:38:18.425Z,56.02
2022-10-21T10:40:43.981Z,55.57
2022-10-21T10:43:14.391Z,56.01
2022-10-21T10:45:46.178Z,55.73
2022-10-21T10:48:15.605Z,55.53
2022-10-21T10:50:42.169Z,56.04
2022-10-21T10:53:09.684Z,56.54
2022-10-21T10:55:35.242Z,56.32
2022-10-21T10:58:10.768Z,56.30
2022-10-21T11:00:39.918Z,56.21
2022-10-21T11:03:07.080Z,55.63
2022-10-21T11:05:35.510Z,55.95
2022-10-21T11:08:03.807Z,56.15
2022-10-21T11:10:36.892Z,55.63
2022-10-21T11:13:03.816Z,56.15
2022-10-21T11:15:49.269Z,55.98
2022-10-21T11:18:25.140Z,56.18
2022-10-21T11:21:10.809Z,56.67
2022-10-21T11:23:57.836Z,56.31
2022-10-21T11:26:27.841Z,55.27
2022-10-21T11:29:13.260Z,55.48
2022-10-21T11:31:53.881Z,56.14
2022-10-21T11:34:30.889Z,55.79
2022-10-21T11:37:07.279Z,54.96
2022-10-21T11:39:36.155Z,55.11
2022-10-21T11:42:07.598Z,54.86
2022-10-21T11:44:41.719Z,55.07
2022-10-21T11:47:14.498Z,54.74
2022-10-21T11:49:59.963Z,54.75
2022-10-21T11:52:45.393Z,54.72
2022-10-21T11:55:16.285Z,54.67
2022-10-21T11:58:03.601Z,54.69
2022-10-21T12:00:30.207Z,54.74
2022-10-21T12:03:15.641Z,54.58
2022-10-21T12:05:45.454Z,54.62
2022-10-21T12:08:19.776Z,54.64
2022-10-21T12:10:46.959Z,54.54
2022-10-21T12:13:14.859Z,54.61
2022-10-21T12:15:41.339Z,54.55
2022-10-21T12:18:10.654Z,54.50
2022-10-21T12:20:36.207Z,54.55
2022-10-21T12:23:02.735Z,54.53
2022-10-21T12:25:48.182Z,54.69
2022-10-21T12:28:16.479Z,54.56
2022-10-21T12:30:46.276Z,54.56
2022-10-21T12:33:31.699Z,54.55
2022-10-21T12:36:17.632Z,54.41
2022-10-21T12:38:45.467Z,54.45
2022-10-21T12:41:33.322Z,54.47
2022-10-21T12:44:02.705Z,54.50
2022-10-21T12:46:30.690Z,54.60
2022-10-21T12:48:56.814Z,54.51
2022-10-21T12:51:24.087Z,54.45
2022-10-21T12:56:31.804Z,54.57
2022-10-21T12:59:01.069Z,54.48
2022-10-21T13:01:43.366Z,54.49
2022-10-21T13:04:29.341Z,54.43
2022-10-21T13:06:56.185Z,54.38
2022-10-21T13:09:38.598Z,54.54
2022-10-21T13:14:58.413Z,54.30
2022-10-21T13:17:28.932Z,54.40
2022-10-21T13:19:55.721Z,54.24
2022-10-21T13:22:22.637Z,54.26
2022-10-21T13:24:48.635Z,54.30
2022-10-21T13:27:29.900Z,54.39
2022-10-21T13:29:55.748Z,54.29
2022-10-21T13:32:22.896Z,54.22
2022-10-21T13:35:08.505Z,54.25
2022-10-21T13:37:35.372Z,54.20
2022-10-21T13:40:03.566Z,54.30
2022-10-21T13:42:31.722Z,54.30
2022-10-21T13:44:59.473Z,59.76
2022-10-21T13:47:27.536Z,56.52
2022-10-21T13:49:54.051Z,56.00
2022-10-21T13:52:19.621Z,55.63
2022-10-21T13:54:45.194Z,55.57
2022-10-21T13:57:15.248Z,55.33
2022-10-21T13:59:40.792Z,55.41
2022-10-21T14:02:06.344Z,55.44
2022-10-21T14:04:32.397Z,55.45
2022-10-21T14:07:00.097Z,55.40
2022-10-21T14:09:27.335Z,55.24
2022-10-21T14:11:56.031Z,55.32
2022-10-21T14:14:22.360Z,55.23
2022-10-21T14:16:49.086Z,55.33
2022-10-21T14:19:16.619Z,55.17
2022-10-21T14:21:43.320Z,55.22
2022-10-21T14:24:19.953Z,55.11
2022-10-21T14:26:45.792Z,55.02
2022-10-21T14:29:11.342Z,54.97
2022-10-21T14:31:36.904Z,55.03
2022-10-21T14:34:06.353Z,55.03
2022-10-21T14:36:31.910Z,55.04
2022-10-21T14:38:59.733Z,54.96
2022-10-21T14:41:43.619Z,54.83
2022-10-21T14:44:13.711Z,55.00
2022-10-21T14:46:41.249Z,54.97
2022-10-21T14:49:13.519Z,54.89
2022-10-21T14:51:40.030Z,54.83
2022-10-21T14:54:06.551Z,54.92
2022-10-21T14:56:33.650Z,54.91
2022-10-21T14:58:59.779Z,54.89
2022-10-21T15:01:25.360Z,54.79
2022-10-21T15:03:53.708Z,54.57
2022-10-21T15:06:21.636Z,54.76
2022-10-21T15:09:07.149Z,54.88
2022-10-21T15:11:34.255Z,54.81
2022-10-21T15:14:16.044Z,54.89
2022-10-21T15:16:57.834Z,54.91
2022-10-21T15:19:24.498Z,54.51
2022-10-21T15:21:51.443Z,54.78
2022-10-21T15:24:17.889Z,54.78
2022-10-21T15:26:44.552Z,54.63
2022-10-21T15:29:12.383Z,54.76
2022-10-21T15:31:37.951Z,54.73
2022-10-21T15:34:04.587Z,54.70
2022-10-21T15:36:30.140Z,54.83
2022-10-21T15:38:55.683Z,54.76
2022-10-21T15:41:23.176Z,54.76
2022-10-21T15:43:51.486Z,54.80
2022-10-21T15:46:17.045Z,54.77
2022-10-21T15:48:42.616Z,54.87
2022-10-21T15:51:08.171Z,54.95
2022-10-21T15:53:33.709Z,54.71
2022-10-21T15:55:59.659Z,54.84
2022-10-21T15:58:25.199Z,54.98
2022-10-21T16:00:50.843Z,55.03
2022-10-21T16:03:17.088Z,55.01
2022-10-21T16:05:42.855Z,54.95
2022-10-21T16:08:10.716Z,55.01
2022-10-21T16:10:36.484Z,54.94
2022-10-21T16:13:02.034Z,55.00
2022-10-21T16:15:27.699Z,55.10
2022-10-21T16:17:54.185Z,55.22
2022-10-21T16:20:21.156Z,55.29
2022-10-21T16:22:46.728Z,55.11
2022-10-21T16:25:13.204Z,55.21
2022-10-21T16:27:51.213Z,55.20
2022-10-21T16:30:24.583Z,55.23
2022-10-21T16:32:50.528Z,55.25
2022-10-21T16:35:16.632Z,55.31
2022-10-21T16:37:42.388Z,55.11
2022-10-21T16:40:24.446Z,55.20
2022-10-21T16:42:50.352Z,55.20
2022-10-21T16:45:16.874Z,55.24
2022-10-21T16:47:47.254Z,55.29
2022-10-21T16:50:16.945Z,55.30
2022-10-21T16:52:42.818Z,55.29
2022-10-21T16:55:08.724Z,55.26
2022-10-21T16:57:34.273Z,55.10
2022-10-21T16:59:59.816Z,55.19
2022-10-21T17:02:25.372Z,55.28
2022-10-21T17:04:50.911Z,55.36
2022-10-21T17:07:16.515Z,55.28
2022-10-21T17:09:42.060Z,55.33
2022-10-21T17:12:09.339Z,55.29
2022-10-21T17:17:05.412Z,55.45
2022-10-21T17:19:30.952Z,55.26
2022-10-21T17:21:56.511Z,55.43
2022-10-21T17:24:22.059Z,55.31
2022-10-21T17:26:47.612Z,55.37
2022-10-21T17:29:13.150Z,55.32
2022-10-21T17:31:39.616Z,55.15
2022-10-21T17:34:06.680Z,55.44
2022-10-21T17:36:32.769Z,55.27
2022-10-21T17:38:58.300Z,55.32
2022-10-21T17:41:23.849Z,55.38
2022-10-21T17:43:49.391Z,55.41
2022-10-21T17:46:16.568Z,55.51
2022-10-21T17:48:42.107Z,55.46
2022-10-21T17:51:07.916Z,55.27
2022-10-21T17:53:33.456Z,55.28
2022-10-21T17:55:59.578Z,55.33
2022-10-21T17:58:25.321Z,55.40
2022-10-21T18:00:50.928Z,55.31
2022-10-21T18:03:17.434Z,55.31
2022-10-21T18:05:44.500Z,55.41
2022-10-21T18:08:10.045Z,55.24
2022-10-21T18:10:35.588Z,55.33
2022-10-21T18:13:01.141Z,55.43
2022-10-21T18:15:27.496Z,55.37
2022-10-21T18:17:53.381Z,55.32
2022-10-21T18:20:18.988Z,55.29
2022-10-21T18:22:44.808Z,55.52
2022-10-21T18:25:10.386Z,55.34
2022-10-21T18:27:35.977Z,55.21
2022-10-21T18:30:03.892Z,55.35
2022-10-21T18:32:29.457Z,55.40
2022-10-21T18:34:54.995Z,55.39
2022-10-21T18:37:20.545Z,55.42
2022-10-21T18:39:46.104Z,55.35
2022-10-21T18:42:11.652Z,55.32
2022-10-21T18:44:37.371Z,55.34
2022-10-21T18:47:02.920Z,55.39
2022-10-21T18:49:28.487Z,55.34
2022-10-21T18:51:54.465Z,55.31
2022-10-21T18:54:20.056Z,55.41
2022-10-21T18:56:45.599Z,55.13
2022-10-21T18:59:11.632Z,55.41
2022-10-21T19:01:37.254Z,55.35
2022-10-21T19:04:02.939Z,55.40
2022-10-21T19:06:31.144Z,55.28
2022-10-21T19:08:56.814Z,55.37
2022-10-21T19:11:22.408Z,55.28
2022-10-21T19:13:47.956Z,55.46
2022-10-21T19:16:13.558Z,55.51
2022-10-21T19:18:39.124Z,55.36
2022-10-21T19:21:04.850Z,55.34
2022-10-21T19:23:31.619Z,55.39
2022-10-21T19:26:01.300Z,55.20
2022-10-21T19:28:26.847Z,55.35
2022-10-21T19:30:52.406Z,55.35
2022-10-21T19:33:17.953Z,55.36
2022-10-21T19:35:43.514Z,55.44
2022-10-21T19:38:15.498Z,55.25
2022-10-21T19:40:46.306Z,55.54
2022-10-21T19:43:11.873Z,55.38
2022-10-21T19:45:37.416Z,55.33
2022-10-21T19:48:03.004Z,55.29
2022-10-21T19:50:28.636Z,55.83
2022-10-21T19:52:54.318Z,55.35
2022-10-21T19:55:19.862Z,55.38
2022-10-21T19:57:45.472Z,55.31
2022-10-21T20:00:11.319Z,55.38
2022-10-21T20:02:37.207Z,55.39
2022-10-21T20:05:02.904Z,55.37
2022-10-21T20:07:28.452Z,55.25
2022-10-21T20:09:53.989Z,55.33
2022-10-21T20:12:19.852Z,55.36
2022-10-21T20:14:45.399Z,55.34
2022-10-21T20:17:12.341Z,55.42
2022-10-21T20:19:40.476Z,55.23
2022-10-21T20:22:06.034Z,55.41
2022-10-21T20:24:31.563Z,55.31
2022-10-21T20:26:59.791Z,55.39
2022-10-21T20:29:27.667Z,55.19
2022-10-21T20:31:53.217Z,55.35
2022-10-21T20:34:18.760Z,55.35
2022-10-21T20:36:44.312Z,55.37
2022-10-21T20:39:09.848Z,55.22
2022-10-21T20:41:36.506Z,55.19
2022-10-21T20:44:03.462Z,55.43
2022-10-21T20:46:33.928Z,55.27
2022-10-21T20:48:59.563Z,55.26
2022-10-21T20:51:26.047Z,55.29
2022-10-21T20:53:52.345Z,55.27
2022-10-21T20:56:18.407Z,55.30
2022-10-21T20:58:43.946Z,55.38
2022-10-21T21:01:11.334Z,55.22
2022-10-21T21:03:38.445Z,55.23
2022-10-21T21:06:04.471Z,55.24
2022-10-21T21:08:32.053Z,55.20
2022-10-21T21:10:59.256Z,55.31
2022-10-21T21:13:24.795Z,55.08
2022-10-21T21:15:50.350Z,55.30
2022-10-21T21:18:15.889Z,55.44
2022-10-21T21:20:41.441Z,55.20
2022-10-21T21:23:06.996Z,55.24
2022-10-21T21:25:32.539Z,55.32
2022-10-21T21:27:58.096Z,55.19
2022-10-21T21:30:23.640Z,55.26
2022-10-21T21:32:49.196Z,55.25
2022-10-21T21:35:14.733Z,55.29
2022-10-21T21:37:40.286Z,55.13
2022-10-21T21:40:06.183Z,55.13
2022-10-21T21:42:31.816Z,55.21
2022-10-21T21:44:57.351Z,55.22
2022-10-21T21:47:22.896Z,55.21
2022-10-21T21:49:48.442Z,55.19
2022-10-21T21:52:14.171Z,55.14
2022-10-21T21:54:39.710Z,55.43
2022-10-21T21:59:50.777Z,55.17
2022-10-21T22:02:16.327Z,55.17
2022-10-21T22:04:41.885Z,55.04
2022-10-21T22:07:07.435Z,55.22
2022-10-21T22:09:32.979Z,55.23
2022-10-21T22:11:58.536Z,55.21
2022-10-21T22:14:24.083Z,55.23
2022-10-21T22:16:49.643Z,55.14
2022-10-21T22:19:15.186Z,55.23
2022-10-21T22:21:40.770Z,55.23
2022-10-21T22:24:06.308Z,55.18
2022-10-21T22:26:31.856Z,55.23
2022-10-21T22:28:57.480Z,55.22
2022-10-21T22:31:28.916Z,55.09
2022-10-21T22:33:56.309Z,55.15
2022-10-21T22:36:21.864Z,55.05
2022-10-21T22:38:47.405Z,55.06
2022-10-21T22:41:13.219Z,55.16
2022-10-21T22:43:38.800Z,55.05
2022-10-21T22:48:49.975Z,55.17
2022-10-21T22:51:15.839Z,55.23
2022-10-21T22:53:41.662Z,55.17
2022-10-21T22:56:07.412Z,55.21
2022-10-21T22:58:32.959Z,55.16
2022-10-21T23:00:58.660Z,55.17
2022-10-21T23:03:24.228Z,55.11
2022-10-21T23:05:49.772Z,54.98
2022-10-21T23:08:16.174Z,55.16
2022-10-21T23:10:41.739Z,55.07
2022-10-21T23:13:07.284Z,55.21
2022-10-21T23:15:33.249Z,55.16
2022-10-21T23:17:58.803Z,54.89
2022-10-21T23:20:24.347Z,55.11
2022-10-21T23:22:49.912Z,55.15
2022-10-21T23:25:15.581Z,55.13
2022-10-21T23:27:41.140Z,55.07
2022-10-21T23:30:06.875Z,55.02
2022-10-21T23:32:32.428Z,55.21
2022-10-21T23:34:57.971Z,55.12
2022-10-21T23:37:23.555Z,55.13
2022-10-21T23:39:49.094Z,55.15
2022-10-21T23:42:14.651Z,55.13
2022-10-21T23:44:40.193Z,55.19
2022-10-21T23:47:05.751Z,55.17
2022-10-21T23:49:31.295Z,55.15
2022-10-21T23:51:57.581Z,55.10
2022-10-21T23:54:23.398Z,55.14
2022-10-21T23:56:48.951Z,55.09
2022-10-21T23:59:14.497Z,55.06
